Mount Tabor, Pennsylvania
Current Conditions -  °F | °C
As of 5:53 AM on Thursday 27 Nov 2014 (Local Time) from KTHV Reporting Station
Few Clouds Few Clouds  
Wind Chill: 31°   Ceiling: Unl
Heat Index: 31°   Visibility: 10mi
Dew Point: 28°   Wind: 3mph
Humidity: 89%   Direction: 270°W
Pressure: 29.99"   Gusts: NA
Location:  40.0362°N, 77.1908°W
Report Text: KTHV 271053Z AUTO 27003KT 10SM FEW070 M01/M02 A2999 RMK AO2 SLP164 T10061022
Loading
Personal Weather Stations






























Interactive Weather Map New forecast layout! Learn more

10-Day Weather Forecast

Advertisements
Track Severe Weather on mobile